sensor_id;sensor_type;location;lat;lon;timestamp;P1;durP1;ratioP1;P2;durP2;ratioP2
73136;SDS011;67767;45.636;11.756;2024-02-15T00:01:00;66.65;;;36.88;;
73136;SDS011;67767;45.636;11.756;2024-02-15T00:03:26;68.13;;;36.13;;
73136;SDS011;67767;45.636;11.756;2024-02-15T00:05:52;61.85;;;33.95;;
73136;SDS011;67767;45.636;11.756;2024-02-15T00:08:18;57.35;;;33.38;;
73136;SDS011;67767;45.636;11.756;2024-02-15T00:10:46;60.03;;;34.05;;
73136;SDS011;67767;45.636;11.756;2024-02-15T00:13:12;58.30;;;32.90;;
73136;SDS011;67767;45.636;11.756;2024-02-15T00:15:39;58.13;;;31.50;;
73136;SDS011;67767;45.636;11.756;2024-02-15T00:18:05;53.92;;;32.38;;
73136;SDS011;67767;45.636;11.756;2024-02-15T00:20:32;55.05;;;33.85;;
73136;SDS011;67767;45.636;11.756;2024-02-15T00:22:59;59.08;;;32.95;;
73136;SDS011;67767;45.636;11.756;2024-02-15T00:25:25;59.30;;;32.97;;
73136;SDS011;67767;45.636;11.756;2024-02-15T00:27:51;59.07;;;32.80;;
73136;SDS011;67767;45.636;11.756;2024-02-15T00:30:17;56.97;;;31.27;;
73136;SDS011;67767;45.636;11.756;2024-02-15T00:32:43;56.78;;;32.22;;
73136;SDS011;67767;45.636;11.756;2024-02-15T00:35:11;62.60;;;31.95;;
73136;SDS011;67767;45.636;11.756;2024-02-15T00:37:38;61.58;;;31.90;;
73136;SDS011;67767;45.636;11.756;2024-02-15T00:40:04;59.63;;;31.73;;
73136;SDS011;67767;45.636;11.756;2024-02-15T00:42:30;55.60;;;31.05;;
73136;SDS011;67767;45.636;11.756;2024-02-15T00:44:57;59.08;;;32.50;;
73136;SDS011;67767;45.636;11.756;2024-02-15T00:47:23;56.80;;;32.33;;
73136;SDS011;67767;45.636;11.756;2024-02-15T00:49:49;52.10;;;31.23;;
73136;SDS011;67767;45.636;11.756;2024-02-15T00:52:18;55.70;;;30.83;;
73136;SDS011;67767;45.636;11.756;2024-02-15T00:54:44;57.67;;;30.85;;
73136;SDS011;67767;45.636;11.756;2024-02-15T00:57:10;57.50;;;31.70;;
73136;SDS011;67767;45.636;11.756;2024-02-15T00:59:36;53.47;;;30.13;;
73136;SDS011;67767;45.636;11.756;2024-02-15T01:02:03;54.35;;;31.10;;
73136;SDS011;67767;45.636;11.756;2024-02-15T01:04:30;54.03;;;30.80;;
73136;SDS011;67767;45.636;11.756;2024-02-15T01:06:56;54.80;;;30.45;;
73136;SDS011;67767;45.636;11.756;2024-02-15T01:09:22;50.72;;;30.65;;
73136;SDS011;67767;45.636;11.756;2024-02-15T01:11:48;52.08;;;31.45;;
73136;SDS011;67767;45.636;11.756;2024-02-15T01:14:14;59.25;;;33.45;;
73136;SDS011;67767;45.636;11.756;2024-02-15T01:16:43;62.33;;;34.60;;
73136;SDS011;67767;45.636;11.756;2024-02-15T01:19:09;58.65;;;32.58;;
73136;SDS011;67767;45.636;11.756;2024-02-15T01:21:35;55.75;;;34.28;;
73136;SDS011;67767;45.636;11.756;2024-02-15T01:24:02;60.63;;;32.08;;
73136;SDS011;67767;45.636;11.756;2024-02-15T01:26:31;52.97;;;29.90;;
73136;SDS011;67767;45.636;11.756;2024-02-15T01:28:57;54.67;;;30.83;;
73136;SDS011;67767;45.636;11.756;2024-02-15T01:31:23;55.83;;;30.92;;
73136;SDS011;67767;45.636;11.756;2024-02-15T01:33:49;55.63;;;30.70;;
73136;SDS011;67767;45.636;11.756;2024-02-15T01:36:16;52.72;;;30.83;;
73136;SDS011;67767;45.636;11.756;2024-02-15T01:38:42;54.90;;;30.25;;
73136;SDS011;67767;45.636;11.756;2024-02-15T01:41:08;55.40;;;31.03;;
73136;SDS011;67767;45.636;11.756;2024-02-15T01:43:35;49.83;;;29.88;;
73136;SDS011;67767;45.636;11.756;2024-02-15T01:46:02;48.30;;;29.20;;
73136;SDS011;67767;45.636;11.756;2024-02-15T01:48:33;50.05;;;29.20;;
73136;SDS011;67767;45.636;11.756;2024-02-15T01:50:59;52.35;;;29.60;;
73136;SDS011;67767;45.636;11.756;2024-02-15T01:53:25;51.70;;;29.27;;
73136;SDS011;67767;45.636;11.756;2024-02-15T01:55:53;56.30;;;29.77;;
73136;SDS011;67767;45.636;11.756;2024-02-15T01:58:20;48.90;;;28.23;;
73136;SDS011;67767;45.636;11.756;2024-02-15T02:00:47;48.40;;;27.95;;
73136;SDS011;67767;45.636;11.756;2024-02-15T02:03:14;49.13;;;27.83;;
73136;SDS011;67767;45.636;11.756;2024-02-15T02:05:41;45.93;;;27.57;;
73136;SDS011;67767;45.636;11.756;2024-02-15T02:08:07;48.63;;;27.83;;
73136;SDS011;67767;45.636;11.756;2024-02-15T02:10:36;46.88;;;28.67;;
73136;SDS011;67767;45.636;11.756;2024-02-15T02:13:02;45.92;;;28.20;;
73136;SDS011;67767;45.636;11.756;2024-02-15T02:15:28;46.10;;;28.88;;
73136;SDS011;67767;45.636;11.756;2024-02-15T02:17:56;43.70;;;27.27;;
73136;SDS011;67767;45.636;11.756;2024-02-15T02:20:24;49.03;;;28.05;;
73136;SDS011;67767;45.636;11.756;2024-02-15T02:22:51;50.17;;;27.75;;
73136;SDS011;67767;45.636;11.756;2024-02-15T02:25:20;48.30;;;28.20;;
73136;SDS011;67767;45.636;11.756;2024-02-15T02:27:46;48.53;;;26.83;;
73136;SDS011;67767;45.636;11.756;2024-02-15T02:30:14;46.07;;;26.73;;
73136;SDS011;67767;45.636;11.756;2024-02-15T02:32:43;44.47;;;26.33;;
73136;SDS011;67767;45.636;11.756;2024-02-15T02:35:09;41.78;;;24.48;;
73136;SDS011;67767;45.636;11.756;2024-02-15T02:37:38;44.55;;;25.23;;
73136;SDS011;67767;45.636;11.756;2024-02-15T02:40:05;48.15;;;26.08;;
73136;SDS011;67767;45.636;11.756;2024-02-15T02:42:56;49.53;;;25.77;;
73136;SDS011;67767;45.636;11.756;2024-02-15T02:45:27;43.97;;;24.48;;
73136;SDS011;67767;45.636;11.756;2024-02-15T02:47:53;43.95;;;25.33;;
73136;SDS011;67767;45.636;11.756;2024-02-15T02:50:23;44.08;;;24.02;;
73136;SDS011;67767;45.636;11.756;2024-02-15T02:52:49;41.15;;;24.85;;
73136;SDS011;67767;45.636;11.756;2024-02-15T02:55:15;46.03;;;24.43;;
73136;SDS011;67767;45.636;11.756;2024-02-15T02:57:42;43.97;;;24.60;;
73136;SDS011;67767;45.636;11.756;2024-02-15T03:00:12;38.10;;;22.70;;
73136;SDS011;67767;45.636;11.756;2024-02-15T03:02:45;42.65;;;22.60;;
73136;SDS011;67767;45.636;11.756;2024-02-15T03:05:11;43.35;;;23.13;;
73136;SDS011;67767;45.636;11.756;2024-02-15T03:07:38;44.90;;;25.03;;
73136;SDS011;67767;45.636;11.756;2024-02-15T03:10:07;48.55;;;25.67;;
73136;SDS011;67767;45.636;11.756;2024-02-15T03:12:35;39.03;;;22.75;;
73136;SDS011;67767;45.636;11.756;2024-02-15T03:15:01;39.97;;;22.67;;
73136;SDS011;67767;45.636;11.756;2024-02-15T03:17:28;44.40;;;23.27;;
73136;SDS011;67767;45.636;11.756;2024-02-15T03:19:56;45.73;;;26.53;;
73136;SDS011;67767;45.636;11.756;2024-02-15T03:22:22;51.38;;;26.95;;
73136;SDS011;67767;45.636;11.756;2024-02-15T03:24:50;60.05;;;29.60;;
73136;SDS011;67767;45.636;11.756;2024-02-15T03:27:17;46.85;;;25.85;;
73136;SDS011;67767;45.636;11.756;2024-02-15T03:29:43;49.42;;;25.63;;
73136;SDS011;67767;45.636;11.756;2024-02-15T03:32:09;44.60;;;25.30;;
73136;SDS011;67767;45.636;11.756;2024-02-15T03:34:35;48.17;;;25.85;;
73136;SDS011;67767;45.636;11.756;2024-02-15T03:37:01;45.60;;;26.13;;
73136;SDS011;67767;45.636;11.756;2024-02-15T03:39:29;40.92;;;25.25;;
73136;SDS011;67767;45.636;11.756;2024-02-15T03:41:55;46.00;;;24.80;;
73136;SDS011;67767;45.636;11.756;2024-02-15T03:44:22;44.90;;;25.00;;
73136;SDS011;67767;45.636;11.756;2024-02-15T03:46:51;45.17;;;25.40;;
73136;SDS011;67767;45.636;11.756;2024-02-15T03:49:18;40.03;;;23.70;;
73136;SDS011;67767;45.636;11.756;2024-02-15T03:51:44;44.03;;;24.90;;
73136;SDS011;67767;45.636;11.756;2024-02-15T03:54:10;41.70;;;24.13;;
73136;SDS011;67767;45.636;11.756;2024-02-15T03:56:36;44.13;;;25.43;;
73136;SDS011;67767;45.636;11.756;2024-02-15T03:59:03;45.30;;;25.88;;
73136;SDS011;67767;45.636;11.756;2024-02-15T04:01:29;43.97;;;25.35;;
73136;SDS011;67767;45.636;11.756;2024-02-15T04:03:59;49.75;;;25.83;;
73136;SDS011;67767;45.636;11.756;2024-02-15T04:06:25;47.90;;;25.20;;
73136;SDS011;67767;45.636;11.756;2024-02-15T04:08:53;44.17;;;25.17;;
73136;SDS011;67767;45.636;11.756;2024-02-15T04:11:19;43.45;;;25.08;;
73136;SDS011;67767;45.636;11.756;2024-02-15T04:13:45;42.97;;;24.40;;
73136;SDS011;67767;45.636;11.756;2024-02-15T04:16:11;46.75;;;24.30;;
73136;SDS011;67767;45.636;11.756;2024-02-15T04:18:38;43.40;;;24.50;;
73136;SDS011;67767;45.636;11.756;2024-02-15T04:21:07;57.43;;;31.10;;
73136;SDS011;67767;45.636;11.756;2024-02-15T04:23:33;61.40;;;31.95;;
73136;SDS011;67767;45.636;11.756;2024-02-15T04:25:59;53.35;;;29.42;;
73136;SDS011;67767;45.636;11.756;2024-02-15T04:28:25;46.45;;;26.20;;
73136;SDS011;67767;45.636;11.756;2024-02-15T04:30:52;42.55;;;24.55;;
73136;SDS011;67767;45.636;11.756;2024-02-15T04:33:18;46.60;;;25.30;;
73136;SDS011;67767;45.636;11.756;2024-02-15T04:35:44;42.70;;;24.42;;
73136;SDS011;67767;45.636;11.756;2024-02-15T04:38:10;43.85;;;24.77;;
73136;SDS011;67767;45.636;11.756;2024-02-15T04:40:36;40.97;;;25.35;;
73136;SDS011;67767;45.636;11.756;2024-02-15T04:43:04;41.85;;;24.90;;
73136;SDS011;67767;45.636;11.756;2024-02-15T04:45:31;46.10;;;24.60;;
73136;SDS011;67767;45.636;11.756;2024-02-15T04:47:57;43.38;;;24.90;;
73136;SDS011;67767;45.636;11.756;2024-02-15T04:50:27;43.47;;;25.35;;
73136;SDS011;67767;45.636;11.756;2024-02-15T04:52:53;46.10;;;25.27;;
73136;SDS011;67767;45.636;11.756;2024-02-15T04:55:19;45.53;;;24.48;;
73136;SDS011;67767;45.636;11.756;2024-02-15T04:57:47;46.40;;;24.40;;
73136;SDS011;67767;45.636;11.756;2024-02-15T05:00:14;44.75;;;24.80;;
73136;SDS011;67767;45.636;11.756;2024-02-15T05:02:40;45.03;;;26.60;;
73136;SDS011;67767;45.636;11.756;2024-02-15T05:05:08;41.85;;;24.15;;
73136;SDS011;67767;45.636;11.756;2024-02-15T05:07:34;46.15;;;24.98;;
73136;SDS011;67767;45.636;11.756;2024-02-15T05:10:05;41.07;;;25.23;;
73136;SDS011;67767;45.636;11.756;2024-02-15T05:12:34;47.95;;;26.60;;
73136;SDS011;67767;45.636;11.756;2024-02-15T05:15:01;46.80;;;25.33;;
73136;SDS011;67767;45.636;11.756;2024-02-15T05:17:34;44.67;;;25.80;;
73136;SDS011;67767;45.636;11.756;2024-02-15T05:20:00;38.97;;;23.42;;
73136;SDS011;67767;45.636;11.756;2024-02-15T05:22:35;47.27;;;24.97;;
73136;SDS011;67767;45.636;11.756;2024-02-15T05:25:01;43.10;;;25.00;;
73136;SDS011;67767;45.636;11.756;2024-02-15T05:27:30;45.55;;;26.85;;
73136;SDS011;67767;45.636;11.756;2024-02-15T05:29:56;42.70;;;26.00;;
73136;SDS011;67767;45.636;11.756;2024-02-15T05:32:22;41.85;;;26.63;;
73136;SDS011;67767;45.636;11.756;2024-02-15T05:34:48;44.13;;;26.97;;
73136;SDS011;67767;45.636;11.756;2024-02-15T05:37:14;41.30;;;25.55;;
73136;SDS011;67767;45.636;11.756;2024-02-15T05:39:41;44.50;;;25.55;;
73136;SDS011;67767;45.636;11.756;2024-02-15T05:42:07;45.50;;;23.75;;
73136;SDS011;67767;45.636;11.756;2024-02-15T05:44:34;40.45;;;24.50;;
73136;SDS011;67767;45.636;11.756;2024-02-15T05:47:00;43.93;;;25.43;;
73136;SDS011;67767;45.636;11.756;2024-02-15T05:49:26;46.05;;;26.50;;
73136;SDS011;67767;45.636;11.756;2024-02-15T05:51:52;44.00;;;25.08;;
73136;SDS011;67767;45.636;11.756;2024-02-15T05:54:19;46.17;;;28.55;;
73136;SDS011;67767;45.636;11.756;2024-02-15T05:56:47;41.88;;;25.73;;
73136;SDS011;67767;45.636;11.756;2024-02-15T05:59:16;45.50;;;24.27;;
73136;SDS011;67767;45.636;11.756;2024-02-15T06:01:45;42.00;;;24.30;;
73136;SDS011;67767;45.636;11.756;2024-02-15T06:04:13;48.20;;;25.85;;
73136;SDS011;67767;45.636;11.756;2024-02-15T06:06:39;45.08;;;23.92;;
73136;SDS011;67767;45.636;11.756;2024-02-15T06:09:05;46.40;;;24.45;;
73136;SDS011;67767;45.636;11.756;2024-02-15T06:11:31;43.47;;;24.53;;
73136;SDS011;67767;45.636;11.756;2024-02-15T06:13:57;45.80;;;26.30;;
73136;SDS011;67767;45.636;11.756;2024-02-15T06:16:23;49.58;;;27.15;;
73136;SDS011;67767;45.636;11.756;2024-02-15T06:18:49;48.45;;;26.65;;
73136;SDS011;67767;45.636;11.756;2024-02-15T06:21:15;43.47;;;26.48;;
73136;SDS011;67767;45.636;11.756;2024-02-15T06:23:43;42.43;;;25.17;;
73136;SDS011;67767;45.636;11.756;2024-02-15T06:26:09;40.15;;;23.08;;
73136;SDS011;67767;45.636;11.756;2024-02-15T06:28:36;38.55;;;23.02;;
73136;SDS011;67767;45.636;11.756;2024-02-15T06:31:21;41.80;;;22.95;;
73136;SDS011;67767;45.636;11.756;2024-02-15T06:34:05;41.42;;;23.67;;
73136;SDS011;67767;45.636;11.756;2024-02-15T06:36:50;41.53;;;22.60;;
73136;SDS011;67767;45.636;11.756;2024-02-15T06:39:35;44.00;;;22.85;;
73136;SDS011;67767;45.636;11.756;2024-02-15T06:42:10;43.92;;;24.23;;
73136;SDS011;67767;45.636;11.756;2024-02-15T06:44:37;45.30;;;25.38;;
73136;SDS011;67767;45.636;11.756;2024-02-15T06:47:06;42.08;;;23.08;;
73136;SDS011;67767;45.636;11.756;2024-02-15T06:49:34;42.63;;;23.13;;
73136;SDS011;67767;45.636;11.756;2024-02-15T06:52:00;40.47;;;21.92;;
73136;SDS011;67767;45.636;11.756;2024-02-15T06:54:27;45.58;;;23.40;;
73136;SDS011;67767;45.636;11.756;2024-02-15T06:56:53;41.53;;;24.08;;
73136;SDS011;67767;45.636;11.756;2024-02-15T06:59:20;45.30;;;24.27;;
73136;SDS011;67767;45.636;11.756;2024-02-15T07:01:48;44.67;;;25.70;;
73136;SDS011;67767;45.636;11.756;2024-02-15T07:04:14;44.88;;;25.50;;
73136;SDS011;67767;45.636;11.756;2024-02-15T07:06:40;43.05;;;25.30;;
73136;SDS011;67767;45.636;11.756;2024-02-15T07:09:09;58.65;;;30.05;;
73136;SDS011;67767;45.636;11.756;2024-02-15T07:11:36;56.25;;;29.80;;
73136;SDS011;67767;45.636;11.756;2024-02-15T07:14:02;53.93;;;30.97;;
73136;SDS011;67767;45.636;11.756;2024-02-15T07:16:32;52.08;;;29.00;;
73136;SDS011;67767;45.636;11.756;2024-02-15T07:18:58;55.17;;;29.15;;
73136;SDS011;67767;45.636;11.756;2024-02-15T07:21:25;53.08;;;30.20;;
73136;SDS011;67767;45.636;11.756;2024-02-15T07:23:52;57.25;;;32.90;;
73136;SDS011;67767;45.636;11.756;2024-02-15T07:26:19;58.53;;;33.73;;
73136;SDS011;67767;45.636;11.756;2024-02-15T07:28:49;69.80;;;39.05;;
73136;SDS011;67767;45.636;11.756;2024-02-15T07:31:17;73.20;;;40.78;;
73136;SDS011;67767;45.636;11.756;2024-02-15T07:33:43;60.58;;;36.95;;
73136;SDS011;67767;45.636;11.756;2024-02-15T07:36:09;61.80;;;36.53;;
73136;SDS011;67767;45.636;11.756;2024-02-15T07:38:35;59.70;;;35.63;;
73136;SDS011;67767;45.636;11.756;2024-02-15T07:41:01;50.88;;;32.40;;
73136;SDS011;67767;45.636;11.756;2024-02-15T07:43:27;60.97;;;33.45;;
73136;SDS011;67767;45.636;11.756;2024-02-15T07:45:53;55.55;;;33.45;;
73136;SDS011;67767;45.636;11.756;2024-02-15T07:48:19;53.22;;;32.28;;
73136;SDS011;67767;45.636;11.756;2024-02-15T07:50:45;54.77;;;32.83;;
73136;SDS011;67767;45.636;11.756;2024-02-15T07:53:11;60.20;;;34.03;;
73136;SDS011;67767;45.636;11.756;2024-02-15T07:55:38;57.80;;;33.70;;
73136;SDS011;67767;45.636;11.756;2024-02-15T07:58:06;48.63;;;30.70;;
73136;SDS011;67767;45.636;11.756;2024-02-15T08:00:32;58.45;;;30.67;;
73136;SDS011;67767;45.636;11.756;2024-02-15T08:02:58;47.87;;;27.00;;
73136;SDS011;67767;45.636;11.756;2024-02-15T08:05:25;40.75;;;23.08;;
73136;SDS011;67767;45.636;11.756;2024-02-15T08:07:51;36.08;;;21.73;;
73136;SDS011;67767;45.636;11.756;2024-02-15T08:10:22;35.22;;;20.67;;
73136;SDS011;67767;45.636;11.756;2024-02-15T08:12:48;38.78;;;21.50;;
73136;SDS011;67767;45.636;11.756;2024-02-15T08:15:17;33.67;;;18.63;;
73136;SDS011;67767;45.636;11.756;2024-02-15T08:17:44;32.45;;;19.80;;
73136;SDS011;67767;45.636;11.756;2024-02-15T08:20:14;38.17;;;20.08;;
73136;SDS011;67767;45.636;11.756;2024-02-15T08:22:40;40.13;;;21.40;;
73136;SDS011;67767;45.636;11.756;2024-02-15T08:25:09;37.40;;;22.25;;
73136;SDS011;67767;45.636;11.756;2024-02-15T08:27:39;36.70;;;22.53;;
73136;SDS011;67767;45.636;11.756;2024-02-15T08:30:11;41.72;;;22.80;;
73136;SDS011;67767;45.636;11.756;2024-02-15T08:32:38;47.05;;;23.70;;
73136;SDS011;67767;45.636;11.756;2024-02-15T08:35:05;43.65;;;24.35;;
73136;SDS011;67767;45.636;11.756;2024-02-15T08:37:31;43.30;;;23.65;;
73136;SDS011;67767;45.636;11.756;2024-02-15T08:40:02;41.53;;;23.47;;
73136;SDS011;67767;45.636;11.756;2024-02-15T08:42:29;43.60;;;23.48;;
73136;SDS011;67767;45.636;11.756;2024-02-15T08:44:55;40.38;;;22.92;;
73136;SDS011;67767;45.636;11.756;2024-02-15T08:47:21;41.22;;;22.35;;
73136;SDS011;67767;45.636;11.756;2024-02-15T08:49:47;36.60;;;21.88;;
73136;SDS011;67767;45.636;11.756;2024-02-15T08:52:13;41.90;;;22.37;;
73136;SDS011;67767;45.636;11.756;2024-02-15T08:54:39;40.33;;;22.95;;
73136;SDS011;67767;45.636;11.756;2024-02-15T08:57:06;41.55;;;22.05;;
73136;SDS011;67767;45.636;11.756;2024-02-15T08:59:32;41.15;;;23.05;;
73136;SDS011;67767;45.636;11.756;2024-02-15T09:01:58;41.88;;;22.30;;
73136;SDS011;67767;45.636;11.756;2024-02-15T09:04:25;39.63;;;22.37;;
73136;SDS011;67767;45.636;11.756;2024-02-15T09:06:52;39.03;;;22.60;;
73136;SDS011;67767;45.636;11.756;2024-02-15T09:09:18;39.72;;;22.52;;
73136;SDS011;67767;45.636;11.756;2024-02-15T09:11:44;39.88;;;21.73;;
73136;SDS011;67767;45.636;11.756;2024-02-15T09:14:10;43.85;;;23.42;;
73136;SDS011;67767;45.636;11.756;2024-02-15T09:16:36;41.57;;;23.07;;
73136;SDS011;67767;45.636;11.756;2024-02-15T09:19:02;39.55;;;22.52;;
73136;SDS011;67767;45.636;11.756;2024-02-15T09:21:28;36.78;;;21.33;;
73136;SDS011;67767;45.636;11.756;2024-02-15T09:23:54;35.90;;;21.15;;
73136;SDS011;67767;45.636;11.756;2024-02-15T09:26:21;40.78;;;22.40;;
73136;SDS011;67767;45.636;11.756;2024-02-15T09:28:47;40.87;;;22.83;;
73136;SDS011;67767;45.636;11.756;2024-02-15T09:31:13;39.28;;;23.30;;
73136;SDS011;67767;45.636;11.756;2024-02-15T09:33:40;34.25;;;21.33;;
73136;SDS011;67767;45.636;11.756;2024-02-15T09:36:06;39.13;;;22.40;;
73136;SDS011;67767;45.636;11.756;2024-02-15T09:38:32;30.88;;;19.63;;
73136;SDS011;67767;45.636;11.756;2024-02-15T09:40:58;30.53;;;19.50;;
73136;SDS011;67767;45.636;11.756;2024-02-15T09:43:24;35.60;;;18.65;;
73136;SDS011;67767;45.636;11.756;2024-02-15T09:45:51;44.50;;;19.27;;
73136;SDS011;67767;45.636;11.756;2024-02-15T09:48:22;29.90;;;17.15;;
73136;SDS011;67767;45.636;11.756;2024-02-15T09:50:49;33.17;;;18.80;;
73136;SDS011;67767;45.636;11.756;2024-02-15T09:53:21;31.40;;;17.93;;
73136;SDS011;67767;45.636;11.756;2024-02-15T09:55:51;36.63;;;19.65;;
73136;SDS011;67767;45.636;11.756;2024-02-15T09:58:29;31.73;;;17.75;;
73136;SDS011;67767;45.636;11.756;2024-02-15T10:00:58;29.63;;;16.95;;
73136;SDS011;67767;45.636;11.756;2024-02-15T10:03:25;32.13;;;17.75;;
73136;SDS011;67767;45.636;11.756;2024-02-15T10:05:53;34.00;;;19.40;;
73136;SDS011;67767;45.636;11.756;2024-02-15T10:08:19;28.65;;;16.92;;
73136;SDS011;67767;45.636;11.756;2024-02-15T10:10:48;29.23;;;18.23;;
73136;SDS011;67767;45.636;11.756;2024-02-15T10:13:31;30.02;;;17.58;;
73136;SDS011;67767;45.636;11.756;2024-02-15T10:15:57;28.50;;;17.75;;
73136;SDS011;67767;45.636;11.756;2024-02-15T10:18:23;32.93;;;17.03;;
73136;SDS011;67767;45.636;11.756;2024-02-15T10:20:58;28.80;;;18.02;;
73136;SDS011;67767;45.636;11.756;2024-02-15T10:23:24;28.63;;;17.60;;
73136;SDS011;67767;45.636;11.756;2024-02-15T10:25:50;33.22;;;19.67;;
73136;SDS011;67767;45.636;11.756;2024-02-15T10:28:21;33.03;;;19.17;;
73136;SDS011;67767;45.636;11.756;2024-02-15T10:30:52;30.67;;;17.47;;
73136;SDS011;67767;45.636;11.756;2024-02-15T10:33:27;29.50;;;17.48;;
73136;SDS011;67767;45.636;11.756;2024-02-15T10:36:06;31.08;;;17.92;;
73136;SDS011;67767;45.636;11.756;2024-02-15T10:38:33;33.55;;;17.67;;
73136;SDS011;67767;45.636;11.756;2024-02-15T10:41:04;30.83;;;18.70;;
73136;SDS011;67767;45.636;11.756;2024-02-15T10:43:30;28.23;;;17.20;;
73136;SDS011;67767;45.636;11.756;2024-02-15T10:45:56;32.28;;;19.10;;
73136;SDS011;67767;45.636;11.756;2024-02-15T10:48:22;31.90;;;18.27;;
73136;SDS011;67767;45.636;11.756;2024-02-15T10:50:49;32.10;;;18.10;;
73136;SDS011;67767;45.636;11.756;2024-02-15T10:56:00;28.13;;;14.67;;
73136;SDS011;67767;45.636;11.756;2024-02-15T10:58:37;29.77;;;16.65;;
73136;SDS011;67767;45.636;11.756;2024-02-15T11:01:06;29.27;;;16.90;;
73136;SDS011;67767;45.636;11.756;2024-02-15T11:03:44;29.67;;;16.48;;
73136;SDS011;67767;45.636;11.756;2024-02-15T11:06:13;26.83;;;15.95;;
73136;SDS011;67767;45.636;11.756;2024-02-15T11:08:40;25.53;;;16.07;;
73136;SDS011;67767;45.636;11.756;2024-02-15T11:11:06;22.92;;;14.23;;
73136;SDS011;67767;45.636;11.756;2024-02-15T11:13:37;25.80;;;15.90;;
73136;SDS011;67767;45.636;11.756;2024-02-15T11:16:03;28.25;;;16.42;;
73136;SDS011;67767;45.636;11.756;2024-02-15T11:18:47;27.63;;;16.38;;
73136;SDS011;67767;45.636;11.756;2024-02-15T11:21:15;28.47;;;16.97;;
73136;SDS011;67767;45.636;11.756;2024-02-15T11:23:42;28.33;;;17.63;;
73136;SDS011;67767;45.636;11.756;2024-02-15T11:26:10;28.05;;;17.00;;
73136;SDS011;67767;45.636;11.756;2024-02-15T11:28:36;30.60;;;19.00;;
73136;SDS011;67767;45.636;11.756;2024-02-15T11:31:04;30.33;;;18.70;;
73136;SDS011;67767;45.636;11.756;2024-02-15T11:33:33;29.77;;;19.43;;
73136;SDS011;67767;45.636;11.756;2024-02-15T11:38:33;30.85;;;19.98;;
73136;SDS011;67767;45.636;11.756;2024-02-15T11:41:03;32.00;;;20.95;;
73136;SDS011;67767;45.636;11.756;2024-02-15T11:43:51;31.73;;;19.98;;
73136;SDS011;67767;45.636;11.756;2024-02-15T11:46:21;29.87;;;19.73;;
73136;SDS011;67767;45.636;11.756;2024-02-15T11:48:51;28.98;;;20.48;;
73136;SDS011;67767;45.636;11.756;2024-02-15T11:51:28;33.08;;;21.63;;
73136;SDS011;67767;45.636;11.756;2024-02-15T11:54:01;34.67;;;20.55;;
73136;SDS011;67767;45.636;11.756;2024-02-15T11:56:30;32.30;;;20.90;;
73136;SDS011;67767;45.636;11.756;2024-02-15T11:59:02;31.93;;;21.67;;
73136;SDS011;67767;45.636;11.756;2024-02-15T12:01:31;34.53;;;22.23;;
73136;SDS011;67767;45.636;11.756;2024-02-15T12:04:15;35.20;;;23.35;;
73136;SDS011;67767;45.636;11.756;2024-02-15T12:07:00;35.90;;;24.20;;
73136;SDS011;67767;45.636;11.756;2024-02-15T12:09:44;34.40;;;24.08;;
73136;SDS011;67767;45.636;11.756;2024-02-15T12:12:29;34.43;;;23.53;;
73136;SDS011;67767;45.636;11.756;2024-02-15T12:15:14;37.83;;;24.83;;
73136;SDS011;67767;45.636;11.756;2024-02-15T12:18:14;41.03;;;24.90;;
73136;SDS011;67767;45.636;11.756;2024-02-15T12:20:59;38.70;;;23.60;;
73136;SDS011;67767;45.636;11.756;2024-02-15T12:23:25;33.60;;;23.23;;
73136;SDS011;67767;45.636;11.756;2024-02-15T12:25:52;35.43;;;24.07;;
73136;SDS011;67767;45.636;11.756;2024-02-15T12:28:18;35.92;;;24.17;;
73136;SDS011;67767;45.636;11.756;2024-02-15T12:30:44;38.10;;;23.73;;
73136;SDS011;67767;45.636;11.756;2024-02-15T12:33:11;39.78;;;24.92;;
73136;SDS011;67767;45.636;11.756;2024-02-15T12:35:38;38.47;;;23.90;;
73136;SDS011;67767;45.636;11.756;2024-02-15T12:38:04;36.13;;;23.53;;
73136;SDS011;67767;45.636;11.756;2024-02-15T12:40:31;36.65;;;24.63;;
73136;SDS011;67767;45.636;11.756;2024-02-15T12:42:57;35.40;;;25.40;;
73136;SDS011;67767;45.636;11.756;2024-02-15T12:45:25;33.47;;;23.60;;
73136;SDS011;67767;45.636;11.756;2024-02-15T12:47:55;37.22;;;24.42;;
73136;SDS011;67767;45.636;11.756;2024-02-15T12:50:23;44.07;;;27.43;;
73136;SDS011;67767;45.636;11.756;2024-02-15T12:52:50;38.03;;;26.20;;
73136;SDS011;67767;45.636;11.756;2024-02-15T12:55:19;36.90;;;27.30;;
73136;SDS011;67767;45.636;11.756;2024-02-15T12:57:47;36.97;;;27.23;;
73136;SDS011;67767;45.636;11.756;2024-02-15T13:00:16;47.25;;;28.23;;
73136;SDS011;67767;45.636;11.756;2024-02-15T13:02:43;39.17;;;27.53;;
73136;SDS011;67767;45.636;11.756;2024-02-15T13:05:10;43.58;;;28.75;;
73136;SDS011;67767;45.636;11.756;2024-02-15T13:07:36;44.45;;;28.42;;
73136;SDS011;67767;45.636;11.756;2024-02-15T13:10:03;42.85;;;29.00;;
73136;SDS011;67767;45.636;11.756;2024-02-15T13:12:36;44.42;;;29.00;;
73136;SDS011;67767;45.636;11.756;2024-02-15T13:15:03;41.20;;;28.23;;
73136;SDS011;67767;45.636;11.756;2024-02-15T13:17:30;43.40;;;28.90;;
73136;SDS011;67767;45.636;11.756;2024-02-15T13:19:57;43.20;;;30.83;;
73136;SDS011;67767;45.636;11.756;2024-02-15T13:22:29;43.30;;;31.00;;
73136;SDS011;67767;45.636;11.756;2024-02-15T13:24:56;42.55;;;29.85;;
73136;SDS011;67767;45.636;11.756;2024-02-15T13:27:22;42.77;;;30.97;;
73136;SDS011;67767;45.636;11.756;2024-02-15T13:29:49;44.28;;;29.85;;
73136;SDS011;67767;45.636;11.756;2024-02-15T13:32:15;43.08;;;31.27;;
73136;SDS011;67767;45.636;11.756;2024-02-15T13:34:45;53.55;;;32.17;;
73136;SDS011;67767;45.636;11.756;2024-02-15T13:37:11;46.92;;;31.48;;
73136;SDS011;67767;45.636;11.756;2024-02-15T13:39:39;43.13;;;31.70;;
73136;SDS011;67767;45.636;11.756;2024-02-15T13:42:10;47.40;;;31.67;;
73136;SDS011;67767;45.636;11.756;2024-02-15T13:44:36;46.55;;;31.35;;
73136;SDS011;67767;45.636;11.756;2024-02-15T13:47:03;47.88;;;32.35;;
73136;SDS011;67767;45.636;11.756;2024-02-15T13:49:30;45.38;;;31.58;;
73136;SDS011;67767;45.636;11.756;2024-02-15T13:51:57;48.07;;;33.13;;
73136;SDS011;67767;45.636;11.756;2024-02-15T13:54:27;44.22;;;31.95;;
73136;SDS011;67767;45.636;11.756;2024-02-15T13:56:54;48.15;;;33.30;;
73136;SDS011;67767;45.636;11.756;2024-02-15T13:59:20;45.95;;;32.40;;
73136;SDS011;67767;45.636;11.756;2024-02-15T14:01:46;45.88;;;32.50;;
73136;SDS011;67767;45.636;11.756;2024-02-15T14:04:12;44.80;;;30.97;;
73136;SDS011;67767;45.636;11.756;2024-02-15T14:06:38;44.55;;;31.90;;
73136;SDS011;67767;45.636;11.756;2024-02-15T14:09:05;47.90;;;34.40;;
73136;SDS011;67767;45.636;11.756;2024-02-15T14:11:31;45.92;;;32.72;;
73136;SDS011;67767;45.636;11.756;2024-02-15T14:13:57;45.53;;;34.17;;
73136;SDS011;67767;45.636;11.756;2024-02-15T14:16:24;47.80;;;34.73;;
73136;SDS011;67767;45.636;11.756;2024-02-15T14:18:50;48.75;;;31.92;;